createdAt,value
2023-07-30T00:02:12.830Z,19.64
2023-07-30T00:05:14.328Z,19.60
2023-07-30T00:08:15.848Z,19.57
2023-07-30T00:11:17.563Z,19.56
2023-07-30T00:14:19.487Z,19.53
2023-07-30T00:17:20.994Z,19.53
2023-07-30T00:20:22.683Z,19.53
2023-07-30T00:23:24.218Z,19.53
2023-07-30T00:26:27.439Z,19.52
2023-07-30T00:29:28.945Z,19.53
2023-07-30T00:32:30.487Z,19.56
2023-07-30T00:35:32.094Z,19.58
2023-07-30T00:38:33.639Z,19.54
2023-07-30T00:41:35.232Z,19.53
2023-07-30T00:44:36.908Z,19.54
2023-07-30T00:47:39.665Z,19.55
2023-07-30T00:50:42.655Z,19.54
2023-07-30T00:53:44.311Z,19.53
2023-07-30T00:56:52.741Z,19.54
2023-07-30T00:59:54.770Z,19.52
2023-07-30T01:02:57.053Z,19.49
2023-07-30T01:05:58.822Z,19.48
2023-07-30T01:09:00.461Z,19.46
2023-07-30T01:12:03.419Z,19.46
2023-07-30T01:15:05.702Z,19.42
2023-07-30T01:18:07.411Z,19.41
2023-07-30T01:21:08.933Z,19.42
2023-07-30T01:24:10.598Z,19.40
2023-07-30T01:27:17.987Z,19.41
2023-07-30T01:30:26.726Z,19.42
2023-07-30T01:33:29.378Z,19.39
2023-07-30T01:36:32.496Z,19.41
2023-07-30T01:39:36.318Z,19.38
2023-07-30T01:42:37.872Z,19.38
2023-07-30T01:45:41.043Z,19.42
2023-07-30T01:48:42.589Z,19.38
2023-07-30T01:51:44.148Z,19.29
2023-07-30T01:54:45.796Z,19.21
2023-07-30T01:57:47.344Z,19.20
2023-07-30T02:00:48.924Z,19.13
2023-07-30T02:03:50.426Z,19.10
2023-07-30T02:06:52.165Z,19.12
2023-07-30T02:09:54.099Z,19.15
2023-07-30T02:12:55.721Z,19.15
2023-07-30T02:15:57.250Z,19.16
2023-07-30T02:18:58.809Z,19.15
2023-07-30T02:22:00.396Z,19.18
2023-07-30T02:25:03.069Z,19.16
2023-07-30T02:28:04.931Z,19.18
2023-07-30T02:31:06.510Z,19.17
2023-07-30T02:34:08.995Z,19.14
2023-07-30T02:37:10.475Z,19.11
2023-07-30T02:40:12.441Z,19.06
2023-07-30T02:43:14.085Z,19.07
2023-07-30T02:46:15.792Z,19.06
2023-07-30T02:49:17.337Z,19.09
2023-07-30T02:52:18.890Z,19.10
2023-07-30T02:55:20.439Z,19.14
2023-07-30T02:58:21.935Z,19.16
2023-07-30T03:01:23.668Z,19.14
2023-07-30T03:04:25.374Z,19.15
2023-07-30T03:07:27.073Z,19.17
2023-07-30T03:10:28.557Z,19.15
2023-07-30T03:13:30.116Z,19.16
2023-07-30T03:16:31.725Z,19.17
2023-07-30T03:19:33.378Z,19.12
2023-07-30T03:22:34.899Z,19.12
2023-07-30T03:25:36.442Z,19.08
2023-07-30T03:28:40.477Z,19.01
2023-07-30T03:31:42.609Z,18.95
2023-07-30T03:34:44.159Z,18.89
2023-07-30T03:37:45.644Z,18.84
2023-07-30T03:40:47.155Z,18.79
2023-07-30T03:43:48.968Z,18.72
2023-07-30T03:46:50.468Z,18.67
2023-07-30T03:49:52.073Z,18.63
2023-07-30T03:52:54.137Z,18.63
2023-07-30T03:55:55.653Z,18.60
2023-07-30T03:58:57.404Z,18.59
2023-07-30T04:01:59.457Z,18.62
2023-07-30T04:05:00.988Z,18.61
2023-07-30T04:08:02.473Z,18.64
2023-07-30T04:11:04.102Z,18.59
2023-07-30T04:14:08.904Z,18.58
2023-07-30T04:17:10.454Z,18.63
2023-07-30T04:20:12.243Z,18.66
2023-07-30T04:23:13.841Z,18.67
2023-07-30T04:26:15.955Z,18.73
2023-07-30T04:29:17.736Z,18.77
2023-07-30T04:32:19.460Z,18.82
2023-07-30T04:35:21.037Z,18.90
2023-07-30T04:38:22.610Z,18.94
2023-07-30T04:41:24.333Z,19.09
2023-07-30T04:44:31.006Z,19.19
2023-07-30T04:47:38.611Z,19.21
2023-07-30T04:50:43.055Z,19.26
2023-07-30T04:53:44.618Z,19.30
2023-07-30T04:56:46.234Z,19.35
2023-07-30T04:59:47.881Z,19.48
2023-07-30T05:02:49.566Z,19.58
2023-07-30T05:05:51.278Z,19.66
2023-07-30T05:08:52.845Z,19.75
2023-07-30T05:11:54.396Z,19.76
2023-07-30T05:14:55.946Z,19.78
2023-07-30T05:17:57.630Z,19.71
2023-07-30T05:20:59.402Z,19.62
2023-07-30T05:24:01.068Z,19.56
2023-07-30T05:27:02.628Z,19.53
2023-07-30T05:30:04.470Z,19.54
2023-07-30T05:33:06.118Z,19.48
2023-07-30T05:36:07.661Z,19.52
2023-07-30T05:39:09.200Z,19.53
2023-07-30T05:42:10.803Z,19.59
2023-07-30T05:45:13.191Z,19.67
2023-07-30T05:48:14.733Z,19.86
2023-07-30T05:51:16.269Z,19.95
2023-07-30T05:54:18.257Z,19.91
2023-07-30T05:57:19.730Z,19.90
2023-07-30T06:00:21.240Z,19.93
2023-07-30T06:03:22.963Z,19.89
2023-07-30T06:06:28.360Z,19.87
2023-07-30T06:09:30.245Z,19.89
2023-07-30T06:12:31.727Z,19.90
2023-07-30T06:15:34.160Z,19.85
2023-07-30T06:18:35.722Z,19.80
2023-07-30T06:21:37.400Z,19.97
2023-07-30T06:24:39.239Z,20.23
2023-07-30T06:27:40.766Z,20.18
2023-07-30T06:30:42.317Z,20.23
2023-07-30T06:33:43.818Z,20.18
2023-07-30T06:36:45.548Z,20.33
2023-07-30T06:39:47.092Z,20.60
2023-07-30T06:42:48.576Z,20.88
2023-07-30T06:45:50.225Z,20.86
2023-07-30T06:48:51.815Z,20.89
2023-07-30T06:51:53.373Z,20.80
2023-07-30T06:54:54.963Z,20.72
2023-07-30T06:57:56.582Z,20.77
2023-07-30T07:00:58.234Z,20.93
2023-07-30T07:03:59.919Z,21.05
2023-07-30T07:07:04.354Z,21.14
2023-07-30T07:10:06.457Z,21.59
2023-07-30T07:13:08.093Z,22.04
2023-07-30T07:16:09.999Z,22.27
2023-07-30T07:19:12.272Z,22.29
2023-07-30T07:22:13.810Z,22.37
2023-07-30T07:25:15.398Z,22.59
2023-07-30T07:28:17.672Z,22.81
2023-07-30T07:31:19.339Z,22.84
2023-07-30T07:34:21.091Z,22.97
2023-07-30T07:37:22.598Z,22.83
2023-07-30T07:40:24.289Z,23.03
2023-07-30T07:43:26.203Z,23.05
2023-07-30T07:46:28.647Z,22.84
2023-07-30T07:49:30.699Z,22.69
2023-07-30T07:52:32.315Z,22.64
2023-07-30T07:55:34.194Z,23.00
2023-07-30T07:58:36.954Z,23.32
2023-07-30T08:01:38.647Z,23.70
2023-07-30T08:04:40.714Z,23.47
2023-07-30T08:07:42.471Z,23.26
2023-07-30T08:10:46.141Z,23.41
2023-07-30T08:13:47.720Z,23.53
2023-07-30T08:16:49.388Z,24.20
2023-07-30T08:19:51.000Z,24.31
2023-07-30T08:22:52.636Z,24.33
2023-07-30T08:25:54.254Z,24.31
2023-07-30T08:28:55.808Z,23.85
2023-07-30T08:31:57.390Z,23.76
2023-07-30T08:34:58.982Z,23.80
2023-07-30T08:38:00.624Z,23.63
2023-07-30T08:41:02.221Z,23.74
2023-07-30T08:44:03.923Z,23.62
2023-07-30T08:47:05.464Z,23.90
2023-07-30T08:50:07.286Z,23.81
2023-07-30T08:53:09.181Z,23.53
2023-07-30T08:56:11.289Z,23.24
2023-07-30T08:59:13.671Z,23.14
2023-07-30T09:02:21.901Z,22.92
2023-07-30T09:05:24.106Z,23.01
2023-07-30T09:08:25.882Z,22.87
2023-07-30T09:11:30.586Z,22.75
2023-07-30T09:14:32.109Z,23.08
2023-07-30T09:17:35.329Z,23.48
2023-07-30T09:20:41.199Z,23.44
2023-07-30T09:23:47.313Z,23.37
2023-07-30T09:26:48.897Z,23.50
2023-07-30T09:29:58.517Z,23.58
2023-07-30T09:33:00.239Z,23.32
2023-07-30T09:36:05.510Z,23.09
2023-07-30T09:39:15.844Z,22.98
2023-07-30T09:42:17.565Z,22.73
2023-07-30T09:45:22.524Z,22.78
2023-07-30T09:48:24.136Z,23.23
2023-07-30T09:51:26.247Z,23.83
2023-07-30T09:54:27.839Z,24.36
2023-07-30T09:57:29.398Z,24.27
2023-07-30T10:00:31.312Z,23.91
2023-07-30T10:03:36.003Z,23.47
2023-07-30T10:07:01.002Z,23.35
2023-07-30T10:10:03.654Z,23.27
2023-07-30T10:13:09.131Z,23.37
2023-07-30T10:16:12.484Z,23.77
2023-07-30T10:19:16.783Z,23.93
2023-07-30T10:22:18.271Z,23.70
2023-07-30T10:25:22.804Z,23.41
2023-07-30T10:28:31.016Z,23.66
2023-07-30T10:31:50.234Z,23.64
2023-07-30T10:34:51.748Z,23.60
2023-07-30T10:37:53.275Z,23.72
2023-07-30T10:41:09.127Z,23.83
2023-07-30T10:44:28.434Z,23.93
2023-07-30T10:47:36.867Z,24.00
2023-07-30T10:50:39.917Z,24.35
2023-07-30T10:53:49.353Z,24.33
2023-07-30T10:56:51.990Z,24.41
2023-07-30T10:59:56.034Z,24.61
2023-07-30T11:03:01.538Z,24.82
2023-07-30T11:06:04.152Z,24.93
2023-07-30T11:09:06.803Z,24.99
2023-07-30T11:12:09.959Z,24.83
2023-07-30T11:15:11.836Z,24.13
2023-07-30T11:18:14.181Z,23.33
2023-07-30T11:21:17.870Z,22.85
2023-07-30T11:24:19.434Z,22.63
2023-07-30T11:27:21.050Z,22.30
2023-07-30T11:30:23.517Z,22.33
2023-07-30T11:33:25.226Z,22.84
2023-07-30T11:36:27.129Z,23.91
2023-07-30T11:39:29.606Z,24.72
2023-07-30T11:42:32.282Z,24.55
2023-07-30T11:45:33.846Z,24.79
2023-07-30T11:48:36.754Z,24.89
2023-07-30T11:51:38.504Z,24.40
2023-07-30T11:54:40.270Z,24.62
2023-07-30T11:57:41.816Z,24.10
2023-07-30T12:00:44.581Z,23.47
2023-07-30T12:03:46.813Z,22.95
2023-07-30T12:06:50.775Z,22.97
2023-07-30T12:09:52.388Z,22.82
2023-07-30T12:12:54.549Z,22.58
2023-07-30T12:15:57.438Z,22.74
2023-07-30T12:18:58.947Z,23.55
2023-07-30T12:22:00.400Z,24.18
2023-07-30T12:25:04.330Z,24.01
2023-07-30T12:28:06.402Z,23.82
2023-07-30T12:31:08.049Z,24.09
2023-07-30T12:34:09.644Z,24.65
2023-07-30T12:37:11.200Z,25.12
2023-07-30T12:40:13.161Z,25.09
2023-07-30T12:43:14.786Z,25.27
2023-07-30T12:46:16.312Z,25.61
2023-07-30T12:49:17.853Z,25.59
2023-07-30T12:52:19.372Z,25.59
2023-07-30T12:55:20.972Z,25.49
2023-07-30T12:58:22.591Z,25.33
2023-07-30T13:01:24.849Z,25.75
2023-07-30T13:04:29.458Z,26.13
2023-07-30T13:07:31.368Z,26.30
2023-07-30T13:10:33.036Z,26.93
2023-07-30T13:13:34.602Z,26.73
2023-07-30T13:16:36.211Z,26.07
2023-07-30T13:19:37.856Z,26.26
2023-07-30T13:22:39.367Z,26.73
2023-07-30T13:25:40.868Z,26.30
2023-07-30T13:28:42.405Z,24.87
2023-07-30T13:31:43.956Z,24.37
2023-07-30T13:34:45.468Z,24.20
2023-07-30T13:37:47.021Z,23.84
2023-07-30T13:40:48.528Z,23.74
2023-07-30T13:43:50.068Z,23.74
2023-07-30T13:46:51.851Z,23.68
2023-07-30T13:49:55.339Z,23.40
2023-07-30T13:52:56.902Z,23.55
2023-07-30T13:55:58.411Z,23.96
2023-07-30T13:59:00.037Z,23.17
2023-07-30T14:02:01.587Z,22.43
2023-07-30T14:05:03.878Z,22.25
2023-07-30T14:08:05.431Z,22.26
2023-07-30T14:11:07.032Z,22.60
2023-07-30T14:14:08.566Z,22.83
2023-07-30T14:17:10.135Z,23.42
2023-07-30T14:20:11.801Z,24.22
2023-07-30T14:23:13.480Z,25.45
2023-07-30T14:26:15.202Z,27.18
2023-07-30T14:29:16.963Z,27.68
2023-07-30T14:32:21.945Z,27.20
2023-07-30T14:35:23.601Z,27.36
2023-07-30T14:38:25.194Z,26.43
2023-07-30T14:41:26.657Z,25.91
2023-07-30T14:44:28.276Z,25.11
2023-07-30T14:47:30.130Z,24.31
2023-07-30T14:50:31.758Z,23.95
2023-07-30T14:53:33.262Z,23.94
2023-07-30T14:56:34.809Z,24.73
2023-07-30T14:59:36.328Z,24.16
2023-07-30T15:02:37.985Z,23.91
2023-07-30T15:05:39.627Z,26.81
2023-07-30T15:08:41.221Z,26.94
2023-07-30T15:11:42.746Z,26.96
2023-07-30T15:14:44.294Z,26.24
2023-07-30T15:17:45.851Z,25.85
2023-07-30T15:20:48.578Z,25.72
2023-07-30T15:23:50.105Z,25.44
2023-07-30T15:26:51.667Z,25.21
2023-07-30T15:29:53.256Z,24.81
2023-07-30T15:32:54.799Z,24.65
2023-07-30T15:35:56.322Z,25.00
2023-07-30T15:38:58.073Z,25.78
2023-07-30T15:41:59.597Z,25.03
2023-07-30T15:45:01.176Z,24.59
2023-07-30T15:48:03.004Z,26.40
2023-07-30T15:51:04.743Z,26.13
2023-07-30T15:54:06.325Z,24.86
2023-07-30T15:57:12.597Z,24.04
2023-07-30T16:00:16.270Z,23.78
2023-07-30T16:03:18.088Z,24.88
2023-07-30T16:06:25.617Z,26.38
2023-07-30T16:09:27.155Z,26.61
2023-07-30T16:12:28.680Z,26.78
2023-07-30T16:15:30.977Z,26.10
2023-07-30T16:18:32.483Z,25.63
2023-07-30T16:21:36.344Z,26.18
2023-07-30T16:24:37.848Z,26.38
2023-07-30T16:27:39.722Z,27.37
2023-07-30T16:30:41.212Z,28.15
2023-07-30T16:33:42.774Z,27.44
2023-07-30T16:36:44.375Z,26.41
2023-07-30T16:39:48.152Z,25.50
2023-07-30T16:42:49.794Z,24.89
2023-07-30T16:45:51.330Z,24.24
2023-07-30T16:48:52.930Z,23.98
2023-07-30T16:51:54.454Z,23.72
2023-07-30T16:54:56.037Z,23.84
2023-07-30T16:57:57.583Z,23.62
2023-07-30T17:01:05.170Z,23.16
2023-07-30T17:04:06.758Z,22.72
2023-07-30T17:07:08.268Z,22.63
2023-07-30T17:10:10.000Z,22.66
2023-07-30T17:13:13.369Z,22.98
2023-07-30T17:16:17.482Z,23.65
2023-07-30T17:19:19.011Z,23.75
2023-07-30T17:22:20.555Z,23.66
2023-07-30T17:25:22.300Z,23.93
2023-07-30T17:28:24.281Z,23.41
2023-07-30T17:31:25.984Z,22.85
2023-07-30T17:34:27.587Z,22.74
2023-07-30T17:37:29.199Z,22.51
2023-07-30T17:40:31.198Z,22.52
2023-07-30T17:43:32.770Z,22.47
2023-07-30T17:46:35.989Z,22.48
2023-07-30T17:49:37.659Z,22.29
2023-07-30T17:52:39.340Z,22.00
2023-07-30T17:55:42.792Z,21.80
2023-07-30T17:58:44.350Z,21.58
2023-07-30T18:01:45.955Z,21.75
2023-07-30T18:04:47.486Z,22.22
2023-07-30T18:07:51.247Z,22.16
2023-07-30T18:10:54.442Z,21.98
2023-07-30T18:13:55.928Z,22.01
2023-07-30T18:16:57.415Z,22.10
2023-07-30T18:19:59.029Z,21.94
2023-07-30T18:23:01.857Z,21.71
2023-07-30T18:26:03.379Z,21.61
2023-07-30T18:29:04.979Z,21.74
2023-07-30T18:32:07.908Z,21.62
2023-07-30T18:35:11.621Z,21.35
2023-07-30T18:38:13.180Z,21.17
2023-07-30T18:41:14.784Z,21.12
2023-07-30T18:44:16.409Z,21.02
2023-07-30T18:47:17.858Z,20.75
2023-07-30T18:50:19.412Z,20.38
2023-07-30T18:53:22.940Z,20.10
2023-07-30T18:56:24.496Z,19.89
2023-07-30T18:59:25.979Z,19.87
2023-07-30T19:02:27.585Z,19.79
2023-07-30T19:05:29.201Z,19.43
2023-07-30T19:08:30.745Z,19.16
2023-07-30T19:11:32.297Z,19.06
2023-07-30T19:14:33.869Z,18.99
2023-07-30T19:17:35.539Z,18.77
2023-07-30T19:20:37.246Z,18.60
2023-07-30T19:23:40.199Z,18.43
2023-07-30T19:26:41.950Z,18.19
2023-07-30T19:29:43.544Z,18.02
2023-07-30T19:32:45.104Z,17.87
2023-07-30T19:35:51.267Z,17.77
2023-07-30T19:38:53.578Z,17.77
2023-07-30T19:41:55.058Z,17.65
2023-07-30T19:44:56.642Z,17.43
2023-07-30T19:47:58.645Z,17.40
2023-07-30T19:51:00.847Z,17.37
2023-07-30T19:54:02.363Z,17.34
2023-07-30T19:57:04.237Z,17.24
2023-07-30T20:00:06.568Z,17.15
2023-07-30T20:03:11.072Z,17.07
2023-07-30T20:06:14.599Z,16.99
2023-07-30T20:09:16.406Z,16.86
2023-07-30T20:12:17.937Z,16.73
2023-07-30T20:15:19.386Z,16.57
2023-07-30T20:18:20.990Z,16.52
2023-07-30T20:21:23.716Z,16.46
2023-07-30T20:24:28.372Z,16.32
2023-07-30T20:27:29.863Z,16.32
2023-07-30T20:30:32.829Z,16.28
2023-07-30T20:33:36.456Z,16.23
2023-07-30T20:36:38.396Z,16.11
2023-07-30T20:39:40.099Z,16.08
2023-07-30T20:42:41.620Z,16.15
2023-07-30T20:45:43.214Z,15.97
2023-07-30T20:48:45.044Z,15.82
2023-07-30T20:51:46.624Z,15.82
2023-07-30T20:54:48.131Z,15.83
2023-07-30T20:57:49.677Z,15.84
2023-07-30T21:00:51.182Z,15.84
2023-07-30T21:03:52.695Z,15.73
2023-07-30T21:06:54.231Z,15.68
2023-07-30T21:09:55.887Z,15.59
2023-07-30T21:12:57.363Z,15.62
2023-07-30T21:15:58.908Z,15.51
2023-07-30T21:19:00.535Z,15.46
2023-07-30T21:22:02.142Z,15.51
2023-07-30T21:25:03.832Z,15.50
2023-07-30T21:28:05.449Z,15.43
2023-07-30T21:31:07.601Z,15.43
2023-07-30T21:34:09.208Z,15.37
2023-07-30T21:37:10.953Z,15.32
2023-07-30T21:40:12.691Z,15.27
2023-07-30T21:43:14.560Z,15.24
2023-07-30T21:46:16.074Z,15.21
2023-07-30T21:49:17.574Z,15.10
2023-07-30T21:52:31.056Z,15.00
2023-07-30T21:55:32.609Z,15.02
2023-07-30T21:58:34.141Z,14.88
2023-07-30T22:01:35.765Z,14.74
2023-07-30T22:04:37.352Z,14.67
2023-07-30T22:07:38.862Z,14.57
2023-07-30T22:10:44.883Z,14.59
2023-07-30T22:13:47.160Z,14.66
2023-07-30T22:16:48.757Z,14.57
2023-07-30T22:19:50.307Z,14.58
2023-07-30T22:22:51.836Z,14.56
2023-07-30T22:25:53.665Z,14.53
2023-07-30T22:28:55.221Z,14.50
2023-07-30T22:31:56.849Z,14.50
2023-07-30T22:34:58.485Z,14.43
2023-07-30T22:38:00.021Z,14.41
2023-07-30T22:41:01.567Z,14.33
2023-07-30T22:44:03.218Z,14.30
2023-07-30T22:47:04.858Z,14.25
2023-07-30T22:50:06.941Z,14.27
2023-07-30T22:53:08.644Z,14.23
2023-07-30T22:56:10.116Z,14.28
2023-07-30T22:59:11.606Z,14.37
2023-07-30T23:02:13.164Z,14.38
2023-07-30T23:05:14.671Z,14.47
2023-07-30T23:08:16.674Z,14.54
2023-07-30T23:11:18.225Z,14.48
2023-07-30T23:14:21.294Z,14.47
2023-07-30T23:17:22.846Z,14.51
2023-07-30T23:20:24.498Z,14.53
2023-07-30T23:23:26.018Z,14.42
2023-07-30T23:26:27.534Z,14.39
2023-07-30T23:29:29.034Z,14.32
2023-07-30T23:32:30.623Z,14.25
2023-07-30T23:35:32.148Z,14.20
2023-07-30T23:38:33.650Z,14.14
2023-07-30T23:41:35.270Z,14.15
2023-07-30T23:44:36.749Z,14.02
2023-07-30T23:47:38.283Z,13.99
2023-07-30T23:50:44.010Z,13.97
2023-07-30T23:53:50.803Z,13.92
2023-07-30T23:56:52.269Z,13.91
2023-07-30T23:59:53.748Z,13.87
